createdAt,value
2019-04-06T00:00:12.595Z,9.10
2019-04-06T00:02:41.311Z,9.10
2019-04-06T00:05:11.423Z,9.10
2019-04-06T00:07:40.009Z,9.10
2019-04-06T00:10:09.426Z,9.10
2019-04-06T00:12:38.140Z,9.10
2019-04-06T00:15:07.549Z,9.20
2019-04-06T00:17:36.164Z,9.10
2019-04-06T00:20:06.394Z,9.10
2019-04-06T00:22:35.247Z,9.20
2019-04-06T00:25:05.189Z,9.20
2019-04-06T00:27:33.939Z,9.20
2019-04-06T00:30:02.641Z,9.20
2019-04-06T00:32:35.679Z,9.20
2019-04-06T00:35:05.050Z,9.20
2019-04-06T00:37:33.588Z,9.20
2019-04-06T00:40:02.216Z,9.30
2019-04-06T00:42:30.823Z,9.30
2019-04-06T00:44:59.459Z,9.20
2019-04-06T00:47:27.979Z,9.30
2019-04-06T00:49:56.760Z,9.30
2019-04-06T00:52:25.426Z,9.30
2019-04-06T00:54:54.052Z,9.30
2019-04-06T00:57:22.613Z,9.30
2019-04-06T00:59:51.140Z,9.30
2019-04-06T01:02:19.773Z,9.30
2019-04-06T01:04:48.647Z,9.30
2019-04-06T01:07:17.207Z,9.20
2019-04-06T01:09:46.093Z,9.20
2019-04-06T01:12:14.731Z,9.20
2019-04-06T01:14:43.288Z,9.20
2019-04-06T01:17:11.853Z,9.20
2019-04-06T01:19:40.568Z,9.20
2019-04-06T01:22:09.252Z,9.20
2019-04-06T01:24:37.846Z,9.10
2019-04-06T01:27:06.574Z,9.10
2019-04-06T01:29:35.063Z,9.10
2019-04-06T01:32:03.646Z,9.10
2019-04-06T01:34:32.211Z,9.20
2019-04-06T01:37:01.125Z,9.10
2019-04-06T01:39:29.613Z,9.10
2019-04-06T01:41:58.288Z,9.10
2019-04-06T01:44:26.812Z,9.10
2019-04-06T01:46:55.487Z,9.10
2019-04-06T01:49:24.091Z,9.10
2019-04-06T01:51:52.642Z,9.10
2019-04-06T01:54:21.162Z,9.00
2019-04-06T01:56:49.774Z,9.00
2019-04-06T01:59:18.258Z,8.90
2019-04-06T02:02:04.755Z,8.90
2019-04-06T02:04:33.399Z,8.90
2019-04-06T02:07:02.019Z,8.80
2019-04-06T02:09:30.781Z,8.80
2019-04-06T02:11:59.415Z,8.80
2019-04-06T02:14:28.095Z,8.80
2019-04-06T02:16:56.701Z,8.80
2019-04-06T02:19:25.389Z,8.80
2019-04-06T02:21:54.097Z,8.80
2019-04-06T02:24:22.716Z,8.90
2019-04-06T02:26:51.475Z,8.80
2019-04-06T02:29:19.969Z,8.80
2019-04-06T02:31:56.305Z,8.80
2019-04-06T02:34:28.991Z,8.80
2019-04-06T02:37:13.956Z,8.80
2019-04-06T02:39:50.243Z,8.80
2019-04-06T02:42:20.475Z,8.80
2019-04-06T02:44:49.239Z,8.80
2019-04-06T02:47:17.989Z,8.80
2019-04-06T02:49:46.711Z,8.70
2019-04-06T02:52:15.343Z,8.70
2019-04-06T02:54:44.059Z,8.70
2019-04-06T02:57:12.745Z,8.70
2019-04-06T02:59:41.374Z,8.70
2019-04-06T03:02:09.942Z,8.70
2019-04-06T03:04:38.777Z,8.70
2019-04-06T03:07:07.748Z,8.60
2019-04-06T03:09:37.892Z,8.60
2019-04-06T03:12:06.527Z,8.70
2019-04-06T03:14:35.190Z,8.70
2019-04-06T03:17:03.897Z,8.70
2019-04-06T03:19:32.666Z,8.70
2019-04-06T03:22:01.185Z,8.80
2019-04-06T03:24:29.820Z,8.80
2019-04-06T03:27:01.988Z,8.80
2019-04-06T03:29:28.934Z,8.80
2019-04-06T03:31:57.654Z,8.80
2019-04-06T03:34:26.208Z,8.70
2019-04-06T03:36:55.089Z,8.80
2019-04-06T03:39:23.697Z,8.80
2019-04-06T03:41:52.317Z,8.70
2019-04-06T03:44:21.066Z,8.70
2019-04-06T03:46:49.557Z,8.80
2019-04-06T03:49:18.115Z,8.70
2019-04-06T03:51:46.625Z,8.70
2019-04-06T03:54:15.281Z,8.70
2019-04-06T03:56:44.013Z,8.70
2019-04-06T03:59:12.657Z,8.70
2019-04-06T04:01:41.268Z,8.70
2019-04-06T04:04:09.854Z,8.80
2019-04-06T04:06:38.418Z,8.80
2019-04-06T04:09:07.110Z,8.80
2019-04-06T04:11:35.763Z,8.80
2019-04-06T04:14:06.197Z,8.90
2019-04-06T04:16:34.787Z,8.90
2019-04-06T04:19:03.552Z,8.90
2019-04-06T04:21:32.179Z,8.90
2019-04-06T04:24:00.739Z,8.90
2019-04-06T04:26:29.383Z,8.90
2019-04-06T04:28:58.026Z,8.90
2019-04-06T04:31:26.585Z,8.90
2019-04-06T04:33:55.165Z,8.90
2019-04-06T04:36:23.722Z,8.90
2019-04-06T04:38:52.486Z,8.90
2019-04-06T04:41:21.202Z,8.80
2019-04-06T04:43:49.861Z,8.80
2019-04-06T04:46:18.379Z,8.80
2019-04-06T04:48:46.852Z,8.90
2019-04-06T04:51:15.485Z,8.90
2019-04-06T04:53:44.067Z,8.80
2019-04-06T04:56:12.559Z,8.90
2019-04-06T04:58:41.216Z,8.80
2019-04-06T05:01:09.838Z,8.80
2019-04-06T05:03:38.427Z,8.80
2019-04-06T05:06:07.019Z,8.80
2019-04-06T05:08:35.642Z,8.70
2019-04-06T05:11:05.730Z,8.70
2019-04-06T05:13:34.782Z,8.80
2019-04-06T05:16:10.995Z,8.80
2019-04-06T05:18:40.590Z,8.70
2019-04-06T05:21:09.212Z,8.80
2019-04-06T05:23:37.715Z,8.80
2019-04-06T05:26:06.809Z,8.80
2019-04-06T05:28:35.464Z,8.90
2019-04-06T05:31:04.092Z,8.90
2019-04-06T05:33:32.573Z,8.90
2019-04-06T05:36:01.288Z,8.90
2019-04-06T05:38:29.843Z,9.00
2019-04-06T05:40:58.657Z,9.00
2019-04-06T05:43:27.185Z,9.10
2019-04-06T05:45:55.734Z,9.00
2019-04-06T05:48:24.352Z,9.10
2019-04-06T05:50:52.902Z,9.10
2019-04-06T05:53:21.492Z,9.20
2019-04-06T05:55:50.251Z,9.20
2019-04-06T05:58:18.797Z,9.20
2019-04-06T06:00:47.299Z,9.10
2019-04-06T06:03:15.962Z,9.20
2019-04-06T06:05:44.645Z,9.30
2019-04-06T06:08:13.131Z,9.20
2019-04-06T06:10:41.758Z,9.30
2019-04-06T06:13:10.419Z,9.20
2019-04-06T06:15:39.043Z,9.20
2019-04-06T06:18:07.672Z,9.20
2019-04-06T06:20:36.268Z,9.20
2019-04-06T06:23:04.894Z,9.20
2019-04-06T06:25:33.757Z,9.20
2019-04-06T06:28:13.327Z,9.20
2019-04-06T06:30:32.624Z,9.20
2019-04-06T06:33:01.263Z,9.20
2019-04-06T06:35:29.884Z,9.20
2019-04-06T06:37:58.565Z,9.20
2019-04-06T06:40:27.125Z,9.20
2019-04-06T06:42:55.724Z,9.30
2019-04-06T06:45:24.362Z,9.20
2019-04-06T06:47:52.925Z,9.30
2019-04-06T06:50:21.511Z,9.30
2019-04-06T06:52:50.203Z,9.40
2019-04-06T06:55:18.749Z,9.50
2019-04-06T06:57:47.347Z,9.50
2019-04-06T07:00:16.140Z,9.60
2019-04-06T07:02:44.770Z,9.60
2019-04-06T07:05:13.584Z,9.60
2019-04-06T07:07:42.160Z,9.50
2019-04-06T07:10:11.070Z,9.50
2019-04-06T07:12:39.719Z,9.50
2019-04-06T07:15:09.154Z,9.60
2019-04-06T07:17:37.820Z,9.60
2019-04-06T07:20:08.312Z,9.60
2019-04-06T07:22:36.817Z,9.60
2019-04-06T07:25:06.512Z,9.50
2019-04-06T07:27:35.152Z,9.60
2019-04-06T07:30:05.980Z,9.60
2019-04-06T07:32:34.649Z,9.60
2019-04-06T07:35:03.780Z,9.60
2019-04-06T07:37:32.364Z,9.60
2019-04-06T07:40:00.872Z,9.60
2019-04-06T07:42:29.421Z,9.70
2019-04-06T07:44:57.935Z,9.70
2019-04-06T07:47:26.508Z,9.70
2019-04-06T07:49:55.060Z,9.70
2019-04-06T07:52:23.645Z,9.80
2019-04-06T07:54:52.274Z,9.90
2019-04-06T07:57:21.043Z,9.90
2019-04-06T07:59:49.661Z,10.00
2019-04-06T08:02:18.347Z,10.00
2019-04-06T08:04:47.057Z,10.10
2019-04-06T08:07:15.842Z,10.00
2019-04-06T08:09:44.580Z,10.00
2019-04-06T08:12:13.828Z,10.10
2019-04-06T08:14:42.341Z,10.20
2019-04-06T08:17:11.066Z,10.20
2019-04-06T08:19:39.631Z,10.30
2019-04-06T08:22:08.283Z,10.40
2019-04-06T08:24:36.794Z,10.40
2019-04-06T08:27:06.487Z,10.60
2019-04-06T08:29:35.137Z,11.10
2019-04-06T08:32:03.785Z,11.70
2019-04-06T08:34:32.441Z,12.30
2019-04-06T08:37:01.164Z,12.30
2019-04-06T08:39:29.773Z,12.00
2019-04-06T08:41:58.290Z,11.80
2019-04-06T08:44:26.895Z,11.60
2019-04-06T08:46:55.509Z,11.40
2019-04-06T08:49:24.154Z,11.60
2019-04-06T08:51:52.854Z,11.70
2019-04-06T08:54:21.402Z,11.90
2019-04-06T08:56:50.032Z,12.10
2019-04-06T08:59:18.610Z,12.00
2019-04-06T09:01:47.098Z,12.20
2019-04-06T09:04:15.815Z,12.30
2019-04-06T09:06:44.463Z,12.20
2019-04-06T09:09:13.270Z,11.90
2019-04-06T09:11:41.784Z,12.00
2019-04-06T09:14:10.413Z,12.00
2019-04-06T09:16:39.040Z,12.00
2019-04-06T09:19:07.619Z,12.10
2019-04-06T09:21:36.397Z,12.40
2019-04-06T09:24:05.137Z,12.80
2019-04-06T09:26:33.764Z,13.80
2019-04-06T09:29:02.317Z,14.30
2019-04-06T09:31:30.973Z,14.80
2019-04-06T09:33:59.478Z,15.20
2019-04-06T09:36:28.177Z,15.30
2019-04-06T09:38:56.769Z,15.70
2019-04-06T09:41:26.324Z,16.30
2019-04-06T09:43:55.278Z,16.40
2019-04-06T09:46:43.643Z,16.80
2019-04-06T09:49:28.734Z,17.40
2019-04-06T09:51:58.987Z,17.90
2019-04-06T09:54:43.807Z,18.50
2019-04-06T09:57:14.045Z,18.80
2019-04-06T09:59:56.233Z,19.10
2019-04-06T10:02:38.124Z,19.10
2019-04-06T10:05:17.860Z,19.70
2019-04-06T10:07:48.066Z,20.20
2019-04-06T10:10:24.221Z,20.50
2019-04-06T10:12:57.278Z,20.40
2019-04-06T10:15:43.263Z,19.90
2019-04-06T10:18:22.531Z,19.80
2019-04-06T10:21:08.656Z,19.80
2019-04-06T10:23:38.857Z,19.50
2019-04-06T10:26:09.149Z,19.50
2019-04-06T10:28:54.007Z,19.50
2019-04-06T10:31:42.004Z,19.60
2019-04-06T10:34:28.032Z,19.50
2019-04-06T10:36:58.271Z,19.80
2019-04-06T10:39:31.080Z,20.20
2019-04-06T10:42:07.105Z,20.50
2019-04-06T10:44:37.434Z,20.90
2019-04-06T10:47:07.807Z,21.30
2019-04-06T10:49:41.208Z,21.30
2019-04-06T10:52:29.376Z,21.30
2019-04-06T10:55:15.577Z,21.10
2019-04-06T10:57:51.871Z,21.30
2019-04-06T11:00:22.087Z,21.70
2019-04-06T11:03:08.564Z,21.70
2019-04-06T11:05:38.909Z,21.70
2019-04-06T11:08:24.351Z,22.00
2019-04-06T11:11:10.489Z,21.70
2019-04-06T11:13:40.853Z,21.50
2019-04-06T11:16:11.043Z,21.50
2019-04-06T11:18:56.562Z,21.70
2019-04-06T11:21:26.762Z,21.70
2019-04-06T11:23:59.791Z,22.10
2019-04-06T11:26:36.571Z,22.40
2019-04-06T11:29:12.321Z,22.60
2019-04-06T11:31:48.482Z,22.80
2019-04-06T11:34:24.844Z,22.90
2019-04-06T11:37:00.496Z,23.20
2019-04-06T11:39:33.480Z,23.40
2019-04-06T11:42:21.811Z,23.40
2019-04-06T11:44:55.075Z,23.70
2019-04-06T11:47:31.469Z,23.70
2019-04-06T11:50:13.894Z,23.70
2019-04-06T11:52:55.731Z,23.50
2019-04-06T11:55:26.332Z,23.20
2019-04-06T11:58:13.138Z,23.40
2019-04-06T12:00:59.022Z,23.30
2019-04-06T12:03:44.641Z,22.40
2019-04-06T12:06:14.807Z,22.40
2019-04-06T12:09:01.229Z,22.60
2019-04-06T12:11:34.491Z,23.00
2019-04-06T12:14:13.127Z,23.00
2019-04-06T12:16:49.191Z,22.80
2019-04-06T12:19:22.156Z,22.80
2019-04-06T12:22:07.359Z,23.10
2019-04-06T12:24:40.341Z,23.50
2019-04-06T12:27:19.199Z,23.70
2019-04-06T12:29:52.163Z,23.60
2019-04-06T12:32:31.323Z,23.70
2019-04-06T12:35:01.445Z,23.80
2019-04-06T12:37:43.786Z,23.80
2019-04-06T12:40:32.420Z,23.70
2019-04-06T12:43:19.056Z,24.00
2019-04-06T12:45:49.334Z,24.70
2019-04-06T12:48:25.733Z,25.30
2019-04-06T12:51:01.551Z,25.80
2019-04-06T12:53:31.824Z,26.10
2019-04-06T12:56:18.459Z,26.10
2019-04-06T12:58:48.768Z,26.10
2019-04-06T13:01:21.498Z,25.50
2019-04-06T13:03:57.821Z,25.50
2019-04-06T13:06:30.949Z,25.50
2019-04-06T13:09:07.202Z,25.70
2019-04-06T13:11:46.101Z,25.50
2019-04-06T13:14:28.632Z,25.50
2019-04-06T13:17:14.093Z,25.30
2019-04-06T13:20:00.422Z,25.40
2019-04-06T13:22:33.786Z,25.30
2019-04-06T13:25:22.227Z,24.90
2019-04-06T13:27:55.152Z,25.10
2019-04-06T13:30:41.997Z,24.90
2019-04-06T13:33:18.231Z,24.70
2019-04-06T13:35:51.565Z,24.20
2019-04-06T13:38:37.886Z,23.60
2019-04-06T13:41:13.896Z,23.10
2019-04-06T13:43:50.238Z,22.90
2019-04-06T13:46:29.393Z,22.60
2019-04-06T13:48:59.595Z,22.10
2019-04-06T13:51:46.303Z,21.60
2019-04-06T13:54:19.892Z,21.40
2019-04-06T13:57:06.508Z,21.40
2019-04-06T13:59:45.636Z,21.40
2019-04-06T14:02:31.257Z,21.90
2019-04-06T14:05:04.215Z,22.20
2019-04-06T14:07:50.901Z,22.40
2019-04-06T14:10:33.525Z,22.80
2019-04-06T14:13:20.420Z,22.90
2019-04-06T14:15:56.652Z,23.10
2019-04-06T14:18:26.940Z,23.20
2019-04-06T14:21:15.352Z,23.10
2019-04-06T14:24:03.827Z,23.00
2019-04-06T14:26:46.475Z,22.80
2019-04-06T14:29:19.258Z,22.60
2019-04-06T14:32:07.836Z,22.30
2019-04-06T14:34:40.827Z,21.80
2019-04-06T14:37:17.106Z,21.40
2019-04-06T14:39:50.617Z,21.30
2019-04-06T14:42:23.935Z,21.30
2019-04-06T14:45:10.304Z,21.30
2019-04-06T14:47:55.788Z,21.30
2019-04-06T14:50:26.313Z,21.30
2019-04-06T14:52:57.437Z,21.10
2019-04-06T14:55:41.477Z,21.10
2019-04-06T14:58:18.289Z,21.30
2019-04-06T15:00:51.163Z,21.50
2019-04-06T15:03:21.387Z,22.20
2019-04-06T15:05:54.333Z,23.20
2019-04-06T15:08:41.273Z,24.20
2019-04-06T15:11:23.029Z,24.90
2019-04-06T15:13:59.019Z,25.10
2019-04-06T15:16:38.461Z,25.30
2019-04-06T15:19:18.194Z,25.50
2019-04-06T15:21:51.811Z,25.70
2019-04-06T15:24:22.158Z,26.20
2019-04-06T15:27:01.443Z,26.50
2019-04-06T15:29:34.347Z,26.70
2019-04-06T15:32:22.796Z,26.80
2019-04-06T15:35:08.146Z,26.70
2019-04-06T15:37:47.204Z,26.50
2019-04-06T15:40:20.601Z,25.70
2019-04-06T15:42:59.511Z,25.20
2019-04-06T15:45:32.663Z,24.60
2019-04-06T15:48:08.754Z,23.80
2019-04-06T15:50:42.272Z,23.10
2019-04-06T15:53:28.540Z,22.80
2019-04-06T15:56:08.096Z,22.40
2019-04-06T15:58:40.973Z,22.20
2019-04-06T16:01:17.295Z,22.00
2019-04-06T16:03:59.905Z,21.90
2019-04-06T16:06:39.223Z,21.70
2019-04-06T16:09:09.552Z,21.50
2019-04-06T16:11:42.440Z,21.60
2019-04-06T16:14:28.575Z,21.70
2019-04-06T16:16:58.806Z,21.50
2019-04-06T16:19:35.044Z,21.10
2019-04-06T16:22:20.250Z,21.00
2019-04-06T16:24:50.468Z,20.80
2019-04-06T16:27:38.808Z,20.70
2019-04-06T16:30:10.881Z,20.60
2019-04-06T16:32:41.135Z,20.40
2019-04-06T16:35:13.938Z,20.30
2019-04-06T16:38:00.397Z,20.00
2019-04-06T16:40:36.571Z,20.00
2019-04-06T16:43:25.005Z,19.70
2019-04-06T16:46:03.886Z,19.50
2019-04-06T16:48:45.949Z,19.20
2019-04-06T16:51:16.542Z,19.00
2019-04-06T16:54:02.153Z,18.80
2019-04-06T16:56:44.796Z,18.60
2019-04-06T16:59:15.412Z,18.60
2019-04-06T17:01:45.873Z,18.80
2019-04-06T17:04:24.887Z,19.20
2019-04-06T17:07:00.989Z,19.70
2019-04-06T17:09:34.978Z,20.00
2019-04-06T17:12:06.330Z,20.20
2019-04-06T17:14:39.406Z,20.30
2019-04-06T17:17:26.160Z,20.30
2019-04-06T17:19:56.359Z,20.30
2019-04-06T17:22:27.071Z,20.20
2019-04-06T17:25:06.655Z,20.20
2019-04-06T17:27:42.959Z,19.90
2019-04-06T17:30:26.431Z,19.50
2019-04-06T17:33:02.082Z,19.20
2019-04-06T17:35:38.380Z,19.10
2019-04-06T17:38:26.461Z,18.80
2019-04-06T17:41:09.092Z,18.50
2019-04-06T17:43:41.943Z,18.20
2019-04-06T17:46:15.136Z,18.00
2019-04-06T17:48:45.530Z,17.80
2019-04-06T17:51:15.761Z,17.60
2019-04-06T17:53:48.450Z,17.40
2019-04-06T17:56:25.011Z,17.20
2019-04-06T17:59:04.166Z,17.00
2019-04-06T18:01:34.418Z,16.90
2019-04-06T18:04:10.556Z,16.70
2019-04-06T18:06:52.372Z,16.60
2019-04-06T18:09:22.578Z,16.50
2019-04-06T18:11:52.925Z,16.30
2019-04-06T18:14:21.845Z,16.20
2019-04-06T18:16:50.701Z,16.10
2019-04-06T18:19:19.369Z,15.90
2019-04-06T18:21:48.137Z,15.90
2019-04-06T18:24:16.948Z,15.80
2019-04-06T18:26:45.627Z,15.60
2019-04-06T18:29:14.261Z,15.60
2019-04-06T18:31:50.343Z,15.50
2019-04-06T18:34:18.934Z,15.40
2019-04-06T18:36:52.306Z,15.40
2019-04-06T18:39:22.495Z,15.30
2019-04-06T18:41:51.273Z,15.30
2019-04-06T18:44:19.844Z,15.10
2019-04-06T18:46:48.433Z,15.10
2019-04-06T18:49:16.992Z,14.90
2019-04-06T18:51:45.803Z,14.80
2019-04-06T18:54:14.384Z,14.60
2019-04-06T18:56:43.930Z,14.60
2019-04-06T18:59:12.968Z,14.50
2019-04-06T19:01:41.676Z,14.40
2019-04-06T19:04:10.488Z,14.30
2019-04-06T19:06:39.558Z,14.30
2019-04-06T19:09:20.729Z,14.20
2019-04-06T19:11:40.811Z,14.10
2019-04-06T19:14:10.202Z,14.00
2019-04-06T19:16:38.876Z,13.90
2019-04-06T19:19:07.815Z,13.90
2019-04-06T19:21:36.504Z,13.80
2019-04-06T19:24:05.518Z,13.70
2019-04-06T19:26:34.147Z,13.60
2019-04-06T19:29:02.818Z,13.60
2019-04-06T19:31:31.714Z,13.50
2019-04-06T19:34:00.545Z,13.40
2019-04-06T19:36:29.448Z,13.40
2019-04-06T19:38:58.168Z,13.30
2019-04-06T19:41:27.118Z,13.30
2019-04-06T19:43:55.800Z,13.20
2019-04-06T19:46:24.741Z,13.10
2019-04-06T19:48:53.409Z,13.00
2019-04-06T19:51:22.580Z,12.90
2019-04-06T19:53:51.257Z,12.90
2019-04-06T19:56:20.115Z,12.90
2019-04-06T19:58:49.261Z,12.90
2019-04-06T20:01:17.869Z,12.90
2019-04-06T20:03:46.547Z,12.80
2019-04-06T20:06:15.542Z,12.70
2019-04-06T20:08:44.217Z,12.70
2019-04-06T20:11:12.973Z,12.70
2019-04-06T20:13:41.619Z,12.70
2019-04-06T20:16:10.281Z,12.60
2019-04-06T20:18:38.987Z,12.60
2019-04-06T20:21:07.954Z,12.60
2019-04-06T20:23:36.463Z,12.50
2019-04-06T20:26:05.744Z,12.50
2019-04-06T20:28:35.368Z,12.50
2019-04-06T20:31:04.060Z,12.40
2019-04-06T20:33:32.647Z,12.30
2019-04-06T20:36:01.279Z,12.30
2019-04-06T20:38:29.959Z,12.30
2019-04-06T20:40:58.549Z,12.20
2019-04-06T20:43:27.582Z,12.20
2019-04-06T20:45:57.533Z,12.10
2019-04-06T20:48:26.283Z,12.10
2019-04-06T20:50:55.115Z,12.00
2019-04-06T20:53:24.126Z,11.90
2019-04-06T20:55:52.756Z,11.80
2019-04-06T20:58:21.381Z,11.60
2019-04-06T21:00:50.514Z,11.60
2019-04-06T21:03:19.252Z,11.50
2019-04-06T21:05:47.981Z,11.50
2019-04-06T21:08:17.144Z,11.50
2019-04-06T21:10:45.866Z,11.50
2019-04-06T21:13:14.426Z,11.50
2019-04-06T21:15:43.584Z,11.60
2019-04-06T21:18:12.430Z,11.60
2019-04-06T21:20:40.929Z,11.60
2019-04-06T21:23:09.781Z,11.60
2019-04-06T21:25:38.805Z,11.70
2019-04-06T21:28:07.761Z,11.60
2019-04-06T21:30:36.783Z,11.60
2019-04-06T21:33:05.485Z,11.70
2019-04-06T21:35:34.528Z,11.60
2019-04-06T21:38:03.044Z,11.60
2019-04-06T21:40:31.707Z,11.70
2019-04-06T21:43:00.388Z,11.80
2019-04-06T21:45:29.859Z,11.80
2019-04-06T21:47:58.583Z,11.80
2019-04-06T21:50:27.541Z,11.80
2019-04-06T21:52:57.597Z,11.80
2019-04-06T21:55:26.387Z,11.80
2019-04-06T21:57:55.349Z,11.90
2019-04-06T22:00:42.744Z,11.90
2019-04-06T22:03:11.385Z,11.90
2019-04-06T22:05:40.038Z,11.90
2019-04-06T22:08:09.338Z,11.80
2019-04-06T22:10:38.181Z,11.70
2019-04-06T22:13:07.270Z,11.60
2019-04-06T22:15:36.141Z,11.60
2019-04-06T22:18:06.126Z,11.50
2019-04-06T22:20:35.544Z,11.50
2019-04-06T22:23:05.104Z,11.50
2019-04-06T22:25:33.744Z,11.50
2019-04-06T22:28:02.802Z,11.40
2019-04-06T22:30:32.570Z,11.40
2019-04-06T22:33:01.830Z,11.30
2019-04-06T22:35:30.545Z,11.30
2019-04-06T22:37:59.232Z,11.20
2019-04-06T22:40:28.180Z,11.20
2019-04-06T22:42:57.293Z,11.20
2019-04-06T22:45:28.264Z,11.20
2019-04-06T22:47:56.856Z,11.10
2019-04-06T22:50:25.810Z,11.10
2019-04-06T22:52:54.671Z,11.10
2019-04-06T22:55:23.289Z,11.10
2019-04-06T22:57:52.079Z,11.00
2019-04-06T23:00:37.484Z,10.90
2019-04-06T23:03:24.146Z,10.90
2019-04-06T23:05:54.281Z,10.90
2019-04-06T23:08:23.490Z,10.80
2019-04-06T23:10:52.233Z,10.70
2019-04-06T23:13:21.410Z,10.60
2019-04-06T23:15:50.827Z,10.50
2019-04-06T23:18:19.654Z,10.50
2019-04-06T23:20:48.408Z,10.40
2019-04-06T23:23:17.637Z,10.40
2019-04-06T23:25:46.969Z,10.40
2019-04-06T23:28:15.939Z,10.30
2019-04-06T23:30:45.300Z,10.30
2019-04-06T23:33:14.310Z,10.20
2019-04-06T23:35:43.040Z,10.20
2019-04-06T23:38:12.273Z,10.20
2019-04-06T23:40:40.961Z,10.10
2019-04-06T23:43:09.714Z,10.10
2019-04-06T23:45:39.395Z,10.10
2019-04-06T23:48:08.088Z,10.10
2019-04-06T23:50:36.602Z,10.10
2019-04-06T23:53:05.258Z,10.10
2019-04-06T23:55:33.944Z,10.00
2019-04-06T23:58:02.869Z,10.00
